Time;durP1;ratioP1;P1;durP2;ratioP2;P2;SDS_P1;SDS_P2;PMS_P1;PMS_P2;Temp;Humidity;BMP_temperature;BMP_pressure;BME280_temperature;BME280_humidity;BME280_pressure;Samples;Min_cycle;Max_cycle;Signal;HPM_P1;HPM_P2
2023/07/30 00:05:10;;;;;;;5.18;2.88;;;;;;;;;;5055459;22;20310;-66
2023/07/30 00:07:36;;;;;;;5.00;2.70;;;;;;;;;;5048940;28;20029;-66
2023/07/30 00:10:01;;;;;;;4.93;2.35;;;;;;;;;;5065732;22;20318;-64
2023/07/30 00:12:26;;;;;;;5.27;2.90;;;;;;;;;;5059396;28;20516;-65
2023/07/30 00:14:51;;;;;;;5.83;2.97;;;;;;;;;;5044165;28;20699;-65
2023/07/30 00:17:17;;;;;;;4.67;2.60;;;;;;;;;;5044938;28;20879;-64
2023/07/30 00:19:42;;;;;;;4.40;2.70;;;;;;;;;;5056991;28;20333;-62
2023/07/30 00:22:07;;;;;;;4.00;2.53;;;;;;;;;;5047608;28;20457;-63
2023/07/30 00:24:32;;;;;;;5.80;2.60;;;;;;;;;;5043862;28;20294;-63
2023/07/30 00:26:57;;;;;;;3.43;2.70;;;;;;;;;;5059906;23;20045;-64
2023/07/30 00:29:23;;;;;;;4.30;2.63;;;;;;;;;;5027898;28;20288;-64
2023/07/30 00:31:48;;;;;;;3.63;2.47;;;;;;;;;;5028353;28;20048;-63
2023/07/30 00:34:13;;;;;;;4.35;2.90;;;;;;;;;;5028931;28;20044;-63
2023/07/30 00:36:38;;;;;;;4.47;2.83;;;;;;;;;;5039512;28;20572;-63
2023/07/30 00:39:04;;;;;;;5.03;2.70;;;;;;;;;;5063240;23;20303;-64
2023/07/30 00:41:29;;;;;;;8.20;3.13;;;;;;;;;;5054625;28;20272;-65
2023/07/30 00:43:54;;;;;;;6.10;3.20;;;;;;;;;;5046933;28;20679;-66
2023/07/30 00:46:19;;;;;;;3.73;2.47;;;;;;;;;;5057026;28;20378;-65
2023/07/30 00:48:45;;;;;;;4.03;2.80;;;;;;;;;;5067186;28;20322;-65
2023/07/30 00:51:10;;;;;;;4.27;2.63;;;;;;;;;;5056689;28;20065;-67
2023/07/30 00:53:37;;;;;;;4.03;2.50;;;;;;;;;;5046007;28;20131;-65
2023/07/30 00:56:02;;;;;;;3.75;2.67;;;;;;;;;;5050606;28;20036;-67
2023/07/30 00:58:28;;;;;;;4.00;2.72;;;;;;;;;;5054064;28;20032;-67
2023/07/30 01:00:53;;;;;;;3.60;2.75;;;;;;;;;;5052429;28;20059;-68
2023/07/30 01:03:18;;;;;;;4.20;2.60;;;;;;;;;;5053895;28;20047;-64
2023/07/30 01:05:44;;;;;;;4.15;2.72;;;;;;;;;;5051060;28;20444;-65
2023/07/30 01:08:09;;;;;;;5.35;3.05;;;;;;;;;;5061331;28;20118;-65
2023/07/30 01:10:34;;;;;;;4.73;2.87;;;;;;;;;;5046858;28;20040;-66
2023/07/30 01:12:59;;;;;;;3.60;2.87;;;;;;;;;;5046770;28;20312;-66
2023/07/30 01:15:25;;;;;;;3.90;2.70;;;;;;;;;;5060511;28;20282;-65
2023/07/30 01:17:50;;;;;;;4.30;2.90;;;;;;;;;;5046828;28;20799;-66
2023/07/30 01:20:15;;;;;;;3.60;2.60;;;;;;;;;;5046599;28;20565;-64
2023/07/30 01:22:40;;;;;;;5.73;3.03;;;;;;;;;;5049109;28;20047;-63
2023/07/30 01:25:06;;;;;;;4.77;3.23;;;;;;;;;;5049212;28;20419;-65
2023/07/30 01:27:32;;;;;;;5.97;3.47;;;;;;;;;;5046448;28;20738;-67
2023/07/30 01:30:03;;;;;;;6.32;3.08;;;;;;;;;;5046080;28;20124;-67
2023/07/30 01:32:28;;;;;;;3.33;2.70;;;;;;;;;;5046084;28;20067;-66
2023/07/30 01:34:54;;;;;;;5.53;3.15;;;;;;;;;;5054098;28;20040;-68
2023/07/30 01:37:20;;;;;;;4.38;2.78;;;;;;;;;;5064869;28;20044;-67
2023/07/30 01:39:45;;;;;;;4.17;2.70;;;;;;;;;;5064135;28;20086;-69
2023/07/30 01:42:13;;;;;;;5.70;2.63;;;;;;;;;;5065644;28;20287;-66
2023/07/30 01:44:38;;;;;;;4.82;2.80;;;;;;;;;;5065047;28;20287;-66
2023/07/30 01:47:04;;;;;;;5.63;2.83;;;;;;;;;;5064494;28;20570;-67
2023/07/30 01:49:29;;;;;;;3.60;2.80;;;;;;;;;;5065759;28;20741;-66
2023/07/30 01:51:54;;;;;;;5.60;2.97;;;;;;;;;;5061310;28;20333;-65
2023/07/30 01:54:19;;;;;;;5.27;3.37;;;;;;;;;;5059908;28;20300;-68
2023/07/30 01:56:44;;;;;;;4.80;2.77;;;;;;;;;;5056580;28;20063;-65
2023/07/30 01:59:10;;;;;;;3.27;2.83;;;;;;;;;;5046805;28;20279;-68
2023/07/30 02:01:35;;;;;;;3.40;2.70;;;;;;;;;;5045598;28;20374;-69
2023/07/30 02:04:00;;;;;;;5.23;3.17;;;;;;;;;;5047892;28;20302;-67
2023/07/30 02:06:25;;;;;;;4.87;2.90;;;;;;;;;;5063454;28;20686;-67
2023/07/30 02:08:51;;;;;;;4.47;3.10;;;;;;;;;;5066138;28;20504;-65
2023/07/30 02:11:16;;;;;;;4.57;3.00;;;;;;;;;;5048596;28;20352;-66
2023/07/30 02:13:42;;;;;;;6.90;3.23;;;;;;;;;;5046333;28;20401;-64
2023/07/30 02:16:07;;;;;;;3.90;2.70;;;;;;;;;;5056266;28;20286;-66
2023/07/30 02:18:32;;;;;;;4.40;2.80;;;;;;;;;;5045596;28;20037;-65
2023/07/30 02:20:58;;;;;;;3.15;2.53;;;;;;;;;;5048995;28;20315;-69
2023/07/30 02:23:23;;;;;;;3.93;2.70;;;;;;;;;;5046086;28;20152;-63
2023/07/30 02:25:48;;;;;;;4.47;2.70;;;;;;;;;;5056705;28;20280;-66
2023/07/30 02:28:13;;;;;;;4.43;2.60;;;;;;;;;;5044890;28;20284;-66
2023/07/30 02:30:38;;;;;;;4.40;2.93;;;;;;;;;;5045293;28;20370;-68
2023/07/30 02:33:04;;;;;;;4.28;2.80;;;;;;;;;;5046362;28;20316;-65
2023/07/30 02:35:29;;;;;;;4.37;2.70;;;;;;;;;;5056768;28;20052;-65
2023/07/30 02:37:54;;;;;;;3.90;2.60;;;;;;;;;;5060579;28;20279;-64
2023/07/30 02:40:19;;;;;;;3.80;2.60;;;;;;;;;;5045948;28;20091;-67
2023/07/30 02:42:45;;;;;;;4.55;3.00;;;;;;;;;;5050366;28;20267;-66
2023/07/30 02:45:10;;;;;;;5.93;3.23;;;;;;;;;;5051314;28;20045;-67
2023/07/30 02:47:35;;;;;;;5.07;2.78;;;;;;;;;;5051545;28;20384;-68
2023/07/30 02:50:01;;;;;;;3.43;2.40;;;;;;;;;;5051221;28;20115;-69
2023/07/30 02:52:26;;;;;;;3.95;2.67;;;;;;;;;;5050386;28;20047;-65
2023/07/30 02:54:52;;;;;;;5.30;3.20;;;;;;;;;;5049530;28;20389;-65
2023/07/30 02:57:17;;;;;;;3.50;2.70;;;;;;;;;;5044348;28;20286;-67
2023/07/30 02:59:42;;;;;;;4.43;2.83;;;;;;;;;;5045091;28;20453;-67
2023/07/30 03:02:07;;;;;;;4.33;3.00;;;;;;;;;;5045025;28;20283;-66
2023/07/30 03:04:33;;;;;;;4.15;2.78;;;;;;;;;;5051830;28;20286;-65
2023/07/30 03:06:58;;;;;;;3.92;2.70;;;;;;;;;;5050577;28;20488;-67
2023/07/30 03:09:23;;;;;;;4.07;2.63;;;;;;;;;;5044535;28;20561;-67
2023/07/30 03:11:49;;;;;;;5.50;3.10;;;;;;;;;;5045289;28;20666;-67
2023/07/30 03:14:14;;;;;;;4.65;2.83;;;;;;;;;;5044829;28;20660;-64
2023/07/30 03:16:39;;;;;;;4.90;2.80;;;;;;;;;;5054103;28;20055;-65
2023/07/30 03:19:05;;;;;;;3.70;2.80;;;;;;;;;;5054673;28;20052;-65
2023/07/30 03:21:30;;;;;;;3.83;2.77;;;;;;;;;;5044824;28;20504;-67
2023/07/30 03:23:55;;;;;;;3.97;2.60;;;;;;;;;;5052500;28;20673;-65
2023/07/30 03:26:20;;;;;;;4.60;2.80;;;;;;;;;;5059703;28;20472;-66
2023/07/30 03:28:46;;;;;;;4.68;2.90;;;;;;;;;;5067173;28;20301;-62
2023/07/30 03:31:11;;;;;;;4.07;2.80;;;;;;;;;;5069106;28;20051;-67
2023/07/30 03:33:36;;;;;;;6.32;2.88;;;;;;;;;;5067729;28;20357;-65
2023/07/30 03:36:01;;;;;;;4.68;2.67;;;;;;;;;;5058708;28;20091;-66
2023/07/30 03:38:27;;;;;;;7.82;2.60;;;;;;;;;;5063887;28;20111;-64
2023/07/30 03:40:52;;;;;;;3.53;2.27;;;;;;;;;;5067779;28;20041;-66
2023/07/30 03:43:17;;;;;;;10.53;2.80;;;;;;;;;;5047066;28;20754;-64
2023/07/30 03:45:42;;;;;;;4.68;2.90;;;;;;;;;;5067766;28;20830;-66
2023/07/30 03:48:08;;;;;;;5.63;2.60;;;;;;;;;;5057285;28;20033;-65
2023/07/30 03:50:33;;;;;;;6.05;2.92;;;;;;;;;;5050970;28;20302;-65
2023/07/30 03:52:58;;;;;;;4.47;2.70;;;;;;;;;;5062820;28;20044;-63
2023/07/30 03:55:23;;;;;;;4.67;2.53;;;;;;;;;;5048328;28;20041;-66
2023/07/30 03:57:49;;;;;;;5.35;3.15;;;;;;;;;;5049712;28;20826;-66
2023/07/30 04:00:14;;;;;;;4.20;3.00;;;;;;;;;;5049293;28;20033;-66
2023/07/30 04:02:39;;;;;;;3.78;2.90;;;;;;;;;;5067960;28;20488;-63
2023/07/30 04:05:05;;;;;;;4.32;3.05;;;;;;;;;;5055495;28;20115;-66
2023/07/30 04:07:30;;;;;;;5.85;2.60;;;;;;;;;;5054263;28;20049;-64
2023/07/30 04:09:55;;;;;;;2.97;2.47;;;;;;;;;;5048061;28;20037;-68
2023/07/30 04:12:22;;;;;;;4.17;2.83;;;;;;;;;;5048157;28;20291;-65
2023/07/30 04:14:47;;;;;;;4.25;2.55;;;;;;;;;;5048078;28;20334;-66
2023/07/30 04:17:12;;;;;;;3.10;2.60;;;;;;;;;;5055983;28;20045;-64
2023/07/30 04:19:38;;;;;;;4.23;2.83;;;;;;;;;;5046228;28;20311;-66
2023/07/30 04:22:03;;;;;;;3.45;2.70;;;;;;;;;;5067445;28;20778;-69
2023/07/30 04:24:28;;;;;;;4.82;2.90;;;;;;;;;;5062328;28;20036;-67
2023/07/30 04:26:53;;;;;;;5.23;2.90;;;;;;;;;;5050548;28;20368;-65
2023/07/30 04:29:18;;;;;;;4.40;2.72;;;;;;;;;;5054552;28;20322;-67
2023/07/30 04:31:44;;;;;;;4.03;2.93;;;;;;;;;;5055999;28;20486;-66
2023/07/30 04:34:09;;;;;;;6.53;2.73;;;;;;;;;;5058203;28;20318;-64
2023/07/30 04:36:34;;;;;;;6.00;3.30;;;;;;;;;;5054791;28;20279;-67
2023/07/30 04:38:59;;;;;;;3.77;3.03;;;;;;;;;;5066490;28;20950;-69
2023/07/30 04:41:25;;;;;;;4.50;2.90;;;;;;;;;;5061183;28;20119;-66
2023/07/30 04:43:50;;;;;;;4.50;2.90;;;;;;;;;;5046992;28;20112;-63
2023/07/30 04:46:15;;;;;;;4.80;3.07;;;;;;;;;;5059166;28;20375;-65
2023/07/30 04:48:40;;;;;;;3.57;2.73;;;;;;;;;;5066544;28;20041;-64
2023/07/30 04:51:05;;;;;;;4.47;2.73;;;;;;;;;;5066916;28;20279;-65
2023/07/30 04:53:31;;;;;;;6.00;3.30;;;;;;;;;;5055186;28;20303;-62
2023/07/30 04:55:57;;;;;;;6.27;3.10;;;;;;;;;;5059388;28;20033;-67
2023/07/30 04:58:22;;;;;;;4.30;3.45;;;;;;;;;;5057514;28;20037;-66
2023/07/30 05:00:47;;;;;;;6.50;3.47;;;;;;;;;;5045564;28;20037;-69
2023/07/30 05:03:12;;;;;;;5.97;3.20;;;;;;;;;;5047207;28;20095;-65
2023/07/30 05:05:38;;;;;;;5.13;3.07;;;;;;;;;;5059470;28;20044;-65
2023/07/30 05:08:03;;;;;;;5.68;3.22;;;;;;;;;;5052035;28;21057;-67
2023/07/30 05:10:28;;;;;;;8.18;3.60;;;;;;;;;;5046592;28;20071;-65
2023/07/30 05:12:53;;;;;;;6.50;3.40;;;;;;;;;;5047151;28;20106;-67
2023/07/30 05:15:19;;;;;;;5.20;3.13;;;;;;;;;;5050009;28;20290;-68
2023/07/30 05:17:44;;;;;;;5.07;3.65;;;;;;;;;;5056024;28;20106;-64
2023/07/30 05:20:10;;;;;;;5.23;3.73;;;;;;;;;;5046024;28;20120;-65
2023/07/30 05:22:35;;;;;;;4.93;3.40;;;;;;;;;;5061639;28;20299;-68
2023/07/30 05:25:00;;;;;;;4.73;3.20;;;;;;;;;;5065209;28;20040;-68
2023/07/30 05:27:28;;;;;;;5.65;3.70;;;;;;;;;;5045969;28;20128;-65
2023/07/30 05:29:53;;;;;;;9.70;3.90;;;;;;;;;;5045968;28;20041;-67
2023/07/30 05:32:18;;;;;;;4.03;3.30;;;;;;;;;;5046468;28;20021;-68
2023/07/30 05:34:43;;;;;;;5.17;3.53;;;;;;;;;;5055399;28;20412;-68
2023/07/30 05:37:09;;;;;;;8.20;3.58;;;;;;;;;;5049980;28;20886;-66
2023/07/30 05:39:34;;;;;;;6.20;3.53;;;;;;;;;;5055793;28;20028;-66
2023/07/30 05:41:59;;;;;;;4.03;3.07;;;;;;;;;;5046515;28;20044;-63
2023/07/30 05:44:24;;;;;;;5.47;3.70;;;;;;;;;;5059620;28;20266;-65
2023/07/30 05:46:49;;;;;;;4.50;3.10;;;;;;;;;;5060638;28;20263;-67
2023/07/30 05:49:15;;;;;;;4.50;3.73;;;;;;;;;;5057037;28;20125;-67
2023/07/30 05:51:40;;;;;;;5.07;3.17;;;;;;;;;;5060701;28;20040;-67
2023/07/30 05:54:05;;;;;;;4.17;3.00;;;;;;;;;;5060841;28;20359;-70
2023/07/30 05:56:30;;;;;;;7.20;3.60;;;;;;;;;;5059487;28;20266;-66
2023/07/30 05:58:55;;;;;;;3.83;3.00;;;;;;;;;;5058547;28;20263;-65
2023/07/30 06:01:21;;;;;;;5.27;2.67;;;;;;;;;;5066103;23;20045;-64
2023/07/30 06:03:46;;;;;;;5.53;3.07;;;;;;;;;;5047698;28;20395;-64
2023/07/30 06:06:11;;;;;;;4.53;2.73;;;;;;;;;;5050663;28;20764;-65
2023/07/30 06:08:36;;;;;;;6.27;3.20;;;;;;;;;;5047608;28;20383;-64
2023/07/30 06:11:03;;;;;;;5.03;3.10;;;;;;;;;;5050253;28;20278;-63
2023/07/30 06:13:28;;;;;;;4.72;2.72;;;;;;;;;;5047381;28;20299;-64
2023/07/30 06:15:53;;;;;;;5.45;2.85;;;;;;;;;;5048056;28;20482;-63
2023/07/30 06:18:19;;;;;;;5.13;2.80;;;;;;;;;;5040866;28;20434;-62
2023/07/30 06:20:44;;;;;;;5.43;3.10;;;;;;;;;;5041242;28;20525;-63
2023/07/30 06:23:09;;;;;;;4.50;3.00;;;;;;;;;;5044600;28;20247;-63
2023/07/30 06:25:34;;;;;;;5.05;2.83;;;;;;;;;;5045637;28;20251;-64
2023/07/30 06:28:00;;;;;;;3.90;2.80;;;;;;;;;;5059032;28;20024;-64
2023/07/30 06:30:25;;;;;;;5.10;2.60;;;;;;;;;;5088017;22;20131;-66
2023/07/30 06:32:50;;;;;;;3.00;2.10;;;;;;;;;;5061393;28;20105;-68
2023/07/30 06:35:15;;;;;;;3.17;2.40;;;;;;;;;;5056761;28;20279;-66
2023/07/30 06:37:41;;;;;;;4.60;2.67;;;;;;;;;;5047922;28;20021;-68
2023/07/30 06:40:06;;;;;;;2.65;2.15;;;;;;;;;;5063883;28;20404;-66
2023/07/30 06:42:31;;;;;;;3.97;2.72;;;;;;;;;;5064841;28;20107;-67
2023/07/30 06:44:57;;;;;;;3.30;2.45;;;;;;;;;;5065065;28;20009;-68
2023/07/30 06:47:22;;;;;;;4.20;2.73;;;;;;;;;;5059311;28;20017;-68
2023/07/30 06:49:47;;;;;;;4.47;2.60;;;;;;;;;;5056041;28;20266;-68
2023/07/30 06:52:12;;;;;;;5.53;2.80;;;;;;;;;;5045251;28;20287;-67
2023/07/30 06:54:38;;;;;;;3.70;2.40;;;;;;;;;;5044303;28;20302;-64
2023/07/30 06:57:03;;;;;;;4.70;2.67;;;;;;;;;;5045782;28;20735;-67
2023/07/30 06:59:28;;;;;;;5.00;2.60;;;;;;;;;;5059786;28;20506;-69
2023/07/30 07:01:53;;;;;;;3.30;2.67;;;;;;;;;;5062280;28;20024;-67
2023/07/30 07:04:19;;;;;;;4.30;2.60;;;;;;;;;;5049338;28;20033;-64
2023/07/30 07:06:44;;;;;;;3.33;2.53;;;;;;;;;;5045082;28;20271;-66
2023/07/30 07:09:09;;;;;;;5.23;3.07;;;;;;;;;;5042873;28;20108;-66
2023/07/30 07:11:34;;;;;;;6.05;2.55;;;;;;;;;;5045094;28;20267;-67
2023/07/30 07:14:00;;;;;;;4.73;2.97;;;;;;;;;;5044481;28;20116;-69
2023/07/30 07:16:25;;;;;;;4.18;2.47;;;;;;;;;;5054553;28;20063;-67
2023/07/30 07:18:50;;;;;;;4.28;2.90;;;;;;;;;;5055040;28;20056;-67
2023/07/30 07:21:16;;;;;;;5.63;3.10;;;;;;;;;;5048506;28;20025;-64
2023/07/30 07:23:41;;;;;;;5.37;2.70;;;;;;;;;;5055126;28;20055;-63
2023/07/30 07:26:06;;;;;;;3.67;2.58;;;;;;;;;;5027096;28;20267;-69
2023/07/30 07:28:31;;;;;;;4.30;2.43;;;;;;;;;;5050161;28;20020;-64
2023/07/30 07:30:57;;;;;;;5.18;3.05;;;;;;;;;;5053043;28;20053;-69
2023/07/30 07:33:22;;;;;;;4.47;2.60;;;;;;;;;;5043244;28;20028;-70
2023/07/30 07:35:47;;;;;;;4.23;2.57;;;;;;;;;;5042776;28;20012;-72
2023/07/30 07:38:12;;;;;;;4.47;2.63;;;;;;;;;;5060459;28;20286;-69
2023/07/30 07:40:39;;;;;;;4.55;2.80;;;;;;;;;;5063301;28;20032;-73
2023/07/30 07:43:05;;;;;;;5.82;3.10;;;;;;;;;;5034106;28;20101;-77
2023/07/30 07:45:30;;;;;;;5.38;2.83;;;;;;;;;;5051067;28;20024;-76
2023/07/30 07:47:55;;;;;;;5.33;2.40;;;;;;;;;;5050694;28;20033;-75
2023/07/30 07:50:20;;;;;;;4.83;2.50;;;;;;;;;;5044753;28;20790;-77
2023/07/30 07:52:46;;;;;;;6.87;2.53;;;;;;;;;;5053300;28;20341;-74
2023/07/30 07:55:11;;;;;;;3.53;2.33;;;;;;;;;;5050592;28;20287;-71
2023/07/30 07:57:36;;;;;;;4.35;2.70;;;;;;;;;;5064032;28;20952;-71
2023/07/30 08:00:02;;;;;;;5.57;2.40;;;;;;;;;;5051992;28;20496;-66
2023/07/30 08:02:27;;;;;;;4.72;2.45;;;;;;;;;;5062790;28;20033;-67
2023/07/30 08:04:52;;;;;;;3.83;2.53;;;;;;;;;;5043084;28;20029;-66
2023/07/30 08:07:17;;;;;;;3.60;2.40;;;;;;;;;;5043151;28;20317;-66
2023/07/30 08:09:43;;;;;;;3.30;2.47;;;;;;;;;;5052215;28;20343;-66
2023/07/30 08:12:08;;;;;;;4.13;2.40;;;;;;;;;;5044752;28;20029;-66
2023/07/30 08:14:33;;;;;;;5.07;2.47;;;;;;;;;;5047614;28;20295;-66
2023/07/30 08:16:58;;;;;;;6.47;2.70;;;;;;;;;;5067122;28;20059;-68
2023/07/30 08:19:24;;;;;;;4.25;2.58;;;;;;;;;;5063837;28;20285;-67
2023/07/30 08:21:49;;;;;;;4.53;2.60;;;;;;;;;;5063258;28;20406;-67
2023/07/30 08:24:14;;;;;;;4.43;2.60;;;;;;;;;;5065466;28;20365;-67
2023/07/30 08:26:39;;;;;;;3.77;2.57;;;;;;;;;;5049510;28;20284;-67
2023/07/30 08:29:06;;;;;;;4.18;2.67;;;;;;;;;;5048309;28;20045;-67
2023/07/30 08:31:31;;;;;;;3.25;2.38;;;;;;;;;;5046635;28;20045;-67
2023/07/30 08:33:56;;;;;;;4.10;2.38;;;;;;;;;;5046531;28;20537;-67
2023/07/30 08:36:21;;;;;;;3.92;2.50;;;;;;;;;;5049589;28;20069;-67
2023/07/30 08:38:47;;;;;;;4.67;2.57;;;;;;;;;;5059933;28;20029;-69
2023/07/30 08:41:12;;;;;;;3.90;2.73;;;;;;;;;;5053856;28;20679;-69
2023/07/30 08:43:37;;;;;;;5.00;2.58;;;;;;;;;;5058727;28;20387;-68
2023/07/30 08:46:03;;;;;;;6.03;3.07;;;;;;;;;;5059346;28;20036;-66
2023/07/30 08:48:28;;;;;;;4.80;2.90;;;;;;;;;;5064769;28;20040;-66
2023/07/30 08:50:56;;;;;;;5.13;2.47;;;;;;;;;;5063739;28;20286;-68
2023/07/30 08:53:21;;;;;;;4.00;2.70;;;;;;;;;;5047585;28;20806;-68
2023/07/30 08:55:46;;;;;;;3.63;2.80;;;;;;;;;;5060186;28;20059;-68
2023/07/30 08:58:12;;;;;;;5.07;2.83;;;;;;;;;;5059262;28;21033;-67
2023/07/30 09:00:38;;;;;;;5.97;2.83;;;;;;;;;;5061179;28;20551;-68
2023/07/30 09:03:04;;;;;;;3.88;2.50;;;;;;;;;;5064711;28;20040;-67
2023/07/30 09:05:29;;;;;;;4.00;2.65;;;;;;;;;;5059942;28;20746;-67
2023/07/30 09:07:55;;;;;;;6.72;2.67;;;;;;;;;;5049746;28;20641;-67
2023/07/30 09:10:20;;;;;;;4.18;2.92;;;;;;;;;;5054875;28;20033;-67
2023/07/30 09:12:45;;;;;;;4.10;2.43;;;;;;;;;;5052706;28;20044;-68
2023/07/30 09:15:11;;;;;;;3.53;2.50;;;;;;;;;;5064745;28;20298;-68
2023/07/30 09:17:36;;;;;;;4.60;2.90;;;;;;;;;;5047059;28;20861;-68
2023/07/30 09:20:04;;;;;;;4.38;2.40;;;;;;;;;;5047607;28;20032;-67
2023/07/30 09:22:33;;;;;;;4.88;3.33;;;;;;;;;;5046457;28;20044;-68
2023/07/30 09:24:58;;;;;;;3.47;2.60;;;;;;;;;;5064746;28;20033;-67
2023/07/30 09:27:26;;;;;;;4.43;2.50;;;;;;;;;;5049336;28;20138;-67
2023/07/30 09:30:00;;;;;;;4.57;2.53;;;;;;;;;;5058484;28;20282;-67
2023/07/30 09:32:29;;;;;;;3.78;2.47;;;;;;;;;;5065986;28;20125;-67
2023/07/30 09:34:55;;;;;;;6.13;2.95;;;;;;;;;;5061465;28;20052;-67
2023/07/30 09:37:20;;;;;;;3.95;2.58;;;;;;;;;;5052314;28;20052;-67
2023/07/30 09:39:47;;;;;;;4.20;2.53;;;;;;;;;;5060989;28;20037;-68
2023/07/30 09:42:12;;;;;;;4.82;2.63;;;;;;;;;;5047482;28;20412;-68
2023/07/30 09:44:38;;;;;;;3.75;2.53;;;;;;;;;;5046313;28;20131;-67
2023/07/30 09:47:05;;;;;;;3.75;2.60;;;;;;;;;;5057507;28;20468;-67
2023/07/30 09:49:31;;;;;;;4.78;2.88;;;;;;;;;;5059184;28;20029;-67
2023/07/30 09:51:56;;;;;;;5.30;2.72;;;;;;;;;;5079249;28;20036;-67
2023/07/30 09:54:22;;;;;;;3.83;2.60;;;;;;;;;;5055390;28;20505;-67
2023/07/30 09:56:47;;;;;;;3.60;2.70;;;;;;;;;;5063969;28;20519;-67
2023/07/30 09:59:12;;;;;;;5.07;3.10;;;;;;;;;;5060386;28;20123;-67
2023/07/30 10:01:38;;;;;;;5.70;3.07;;;;;;;;;;5051957;28;20067;-66
2023/07/30 10:04:06;;;;;;;4.10;2.65;;;;;;;;;;5044909;28;20025;-69
2023/07/30 10:06:31;;;;;;;5.22;2.75;;;;;;;;;;5045012;28;20417;-66
2023/07/30 10:08:57;;;;;;;3.77;2.90;;;;;;;;;;5058461;28;20037;-67
2023/07/30 10:11:22;;;;;;;4.30;2.20;;;;;;;;;;5030126;28;20029;-67
2023/07/30 10:13:47;;;;;;;4.85;2.83;;;;;;;;;;5056136;28;20052;-67
2023/07/30 10:16:13;;;;;;;3.57;2.83;;;;;;;;;;5063623;28;20071;-67
2023/07/30 10:18:39;;;;;;;3.92;2.70;;;;;;;;;;5057931;28;20302;-67
2023/07/30 10:21:05;;;;;;;3.83;2.83;;;;;;;;;;5059304;28;20041;-66
2023/07/30 10:23:32;;;;;;;4.18;2.58;;;;;;;;;;5055661;28;20044;-66
2023/07/30 10:25:57;;;;;;;3.65;3.03;;;;;;;;;;5048796;28;20102;-68
2023/07/30 10:28:26;;;;;;;3.37;2.50;;;;;;;;;;5064757;28;20492;-66
2023/07/30 10:30:58;;;;;;;4.50;2.60;;;;;;;;;;5069751;23;20135;-66
2023/07/30 10:33:23;;;;;;;3.75;2.83;;;;;;;;;;5041800;28;20131;-66
2023/07/30 10:35:49;;;;;;;4.13;2.80;;;;;;;;;;5043866;28;20587;-66
2023/07/30 10:38:15;;;;;;;4.15;2.55;;;;;;;;;;5051828;28;20028;-65
2023/07/30 10:40:40;;;;;;;3.65;2.65;;;;;;;;;;5051693;28;20056;-65
2023/07/30 10:43:18;;;;;;;4.50;3.00;;;;;;;;;;5049521;28;20492;-65
2023/07/30 10:45:50;;;;;;;3.50;2.60;;;;;;;;;;5061317;28;20038;-65
2023/07/30 10:48:15;;;;;;;4.68;3.00;;;;;;;;;;5045714;28;20036;-65
2023/07/30 10:50:41;;;;;;;4.93;3.00;;;;;;;;;;5053169;28;20039;-64
2023/07/30 10:53:07;;;;;;;4.43;3.27;;;;;;;;;;5057055;28;20370;-65
2023/07/30 10:55:34;;;;;;;3.45;2.80;;;;;;;;;;5049709;28;20314;-65
2023/07/30 10:57:59;;;;;;;4.32;3.20;;;;;;;;;;5061645;28;20034;-65
2023/07/30 11:00:25;;;;;;;4.73;2.57;;;;;;;;;;5052575;28;20033;-64
2023/07/30 11:02:56;;;;;;;3.97;3.08;;;;;;;;;;5039587;28;20043;-65
2023/07/30 11:05:22;;;;;;;5.68;3.53;;;;;;;;;;5053854;28;20040;-67
2023/07/30 11:07:51;;;;;;;3.42;2.45;;;;;;;;;;5061505;28;20086;-66
2023/07/30 11:10:16;;;;;;;5.22;2.92;;;;;;;;;;5051155;28;20112;-66
2023/07/30 11:12:42;;;;;;;5.38;2.70;;;;;;;;;;5063473;28;20112;-66
2023/07/30 11:15:07;;;;;;;4.90;3.10;;;;;;;;;;5064644;28;20124;-66
2023/07/30 11:17:32;;;;;;;4.28;2.90;;;;;;;;;;5064176;28;20593;-66
2023/07/30 11:19:58;;;;;;;4.50;3.30;;;;;;;;;;5050683;28;20485;-67
2023/07/30 11:22:31;;;;;;;4.35;3.08;;;;;;;;;;5058579;28;20293;-66
2023/07/30 11:24:56;;;;;;;5.28;3.40;;;;;;;;;;5060990;28;20043;-67
2023/07/30 11:27:21;;;;;;;3.53;2.78;;;;;;;;;;5063678;28;20017;-67
2023/07/30 11:29:56;;;;;;;4.27;3.20;;;;;;;;;;5062635;28;20097;-67
2023/07/30 11:32:23;;;;;;;4.70;3.35;;;;;;;;;;5073610;28;20302;-67
2023/07/30 11:34:49;;;;;;;4.60;3.15;;;;;;;;;;5053010;28;20076;-66
2023/07/30 11:37:14;;;;;;;3.95;2.70;;;;;;;;;;5045163;28;20040;-67
2023/07/30 11:39:39;;;;;;;4.37;3.30;;;;;;;;;;5046942;28;20068;-65
2023/07/30 11:42:04;;;;;;;5.80;3.15;;;;;;;;;;5058573;28;20255;-65
2023/07/30 11:44:31;;;;;;;5.35;3.33;;;;;;;;;;5061572;28;20025;-65
2023/07/30 11:46:56;;;;;;;4.47;3.10;;;;;;;;;;5050098;28;20020;-65
2023/07/30 11:49:21;;;;;;;4.97;3.27;;;;;;;;;;5062703;28;20039;-65
2023/07/30 11:51:48;;;;;;;4.45;3.33;;;;;;;;;;5049422;28;20256;-65
2023/07/30 11:54:20;;;;;;;5.07;3.10;;;;;;;;;;5060118;28;20032;-65
2023/07/30 11:56:45;;;;;;;4.30;3.22;;;;;;;;;;5076033;28;20496;-66
2023/07/30 11:59:10;;;;;;;4.15;2.92;;;;;;;;;;5065944;28;20063;-65
2023/07/30 12:01:36;;;;;;;5.57;3.50;;;;;;;;;;5053666;28;20081;-66
2023/07/30 12:04:02;;;;;;;5.47;3.42;;;;;;;;;;5066754;28;20039;-65
2023/07/30 12:06:44;;;;;;;5.10;3.17;;;;;;;;;;5052993;28;20028;-65
2023/07/30 12:09:16;;;;;;;3.75;3.20;;;;;;;;;;5055076;28;20155;-66
2023/07/30 12:11:52;;;;;;;4.97;3.42;;;;;;;;;;5060899;28;20043;-66
2023/07/30 12:14:17;;;;;;;5.35;3.63;;;;;;;;;;5047295;28;20189;-65
2023/07/30 12:16:43;;;;;;;5.13;3.35;;;;;;;;;;5064740;28;20029;-66
2023/07/30 12:19:08;;;;;;;6.20;3.85;;;;;;;;;;5064165;28;20024;-66
2023/07/30 12:21:33;;;;;;;4.83;3.50;;;;;;;;;;5062120;28;20051;-66
2023/07/30 12:23:59;;;;;;;6.05;3.88;;;;;;;;;;5064228;28;20116;-66
2023/07/30 12:26:24;;;;;;;6.20;3.53;;;;;;;;;;5066598;28;20119;-67
2023/07/30 12:28:49;;;;;;;5.90;3.95;;;;;;;;;;5064370;28;20024;-66
2023/07/30 12:31:14;;;;;;;5.77;3.70;;;;;;;;;;5060840;28;20037;-66
2023/07/30 12:33:40;;;;;;;4.50;3.13;;;;;;;;;;5045366;28;21112;-68
2023/07/30 12:36:05;;;;;;;5.40;3.77;;;;;;;;;;5058835;28;20275;-65
2023/07/30 12:38:30;;;;;;;4.90;3.60;;;;;;;;;;5051142;28;20400;-70
2023/07/30 12:40:56;;;;;;;4.90;3.70;;;;;;;;;;5055099;28;20033;-68
2023/07/30 12:43:21;;;;;;;5.93;3.77;;;;;;;;;;5033455;28;20395;-70
2023/07/30 12:45:47;;;;;;;5.43;3.95;;;;;;;;;;5056723;28;21094;-66
2023/07/30 12:48:12;;;;;;;4.97;3.50;;;;;;;;;;5052178;28;20095;-64
2023/07/30 12:50:37;;;;;;;5.05;3.50;;;;;;;;;;5056243;28;20043;-65
2023/07/30 12:53:02;;;;;;;5.27;3.33;;;;;;;;;;5051599;28;20043;-65
2023/07/30 12:55:28;;;;;;;4.47;3.60;;;;;;;;;;5051661;28;20299;-66
2023/07/30 12:57:53;;;;;;;4.80;3.70;;;;;;;;;;5050794;28;20036;-65
2023/07/30 13:00:18;;;;;;;4.28;3.45;;;;;;;;;;5055342;28;20032;-64
2023/07/30 13:02:44;;;;;;;4.95;3.47;;;;;;;;;;5051737;28;20028;-66
2023/07/30 13:05:09;;;;;;;4.43;3.40;;;;;;;;;;5049078;28;20086;-65
2023/07/30 13:07:35;;;;;;;5.00;3.40;;;;;;;;;;5057378;28;20401;-65
2023/07/30 13:10:04;;;;;;;3.90;2.90;;;;;;;;;;5050628;28;20083;-63
2023/07/30 13:12:29;;;;;;;4.00;2.95;;;;;;;;;;5050280;28;21262;-64
2023/07/30 13:14:54;;;;;;;4.15;3.13;;;;;;;;;;5034116;28;20047;-66
2023/07/30 13:17:20;;;;;;;4.90;3.13;;;;;;;;;;5048821;28;20095;-66
2023/07/30 13:19:45;;;;;;;3.90;3.25;;;;;;;;;;5056146;28;20418;-67
2023/07/30 13:22:10;;;;;;;4.90;3.38;;;;;;;;;;5057529;28;20112;-68
2023/07/30 13:24:36;;;;;;;4.22;3.50;;;;;;;;;;5057588;28;20032;-69
2023/07/30 13:27:01;;;;;;;3.70;2.80;;;;;;;;;;5050861;28;20144;-68
2023/07/30 13:29:27;;;;;;;4.47;3.03;;;;;;;;;;5049241;28;20476;-68
2023/07/30 13:31:52;;;;;;;4.70;3.30;;;;;;;;;;5048954;28;20036;-68
2023/07/30 13:34:18;;;;;;;4.25;3.55;;;;;;;;;;5046186;28;20045;-67
2023/07/30 13:36:43;;;;;;;5.22;3.42;;;;;;;;;;5055167;28;20039;-69
2023/07/30 13:39:09;;;;;;;4.07;3.40;;;;;;;;;;5061308;28;20413;-68
2023/07/30 13:41:34;;;;;;;3.67;2.70;;;;;;;;;;5053381;28;20044;-67
2023/07/30 13:44:00;;;;;;;3.58;3.10;;;;;;;;;;5056207;28;20029;-67
2023/07/30 13:46:25;;;;;;;3.35;2.60;;;;;;;;;;5054714;28;20033;-68
2023/07/30 13:48:51;;;;;;;3.95;3.08;;;;;;;;;;5055027;28;20033;-68
2023/07/30 13:51:16;;;;;;;4.07;2.90;;;;;;;;;;5050912;28;20511;-68
2023/07/30 13:53:41;;;;;;;3.87;3.07;;;;;;;;;;5049514;28;20330;-66
2023/07/30 13:56:06;;;;;;;4.57;3.10;;;;;;;;;;5052111;28;20298;-66
2023/07/30 13:58:32;;;;;;;3.05;2.47;;;;;;;;;;5051423;28;20033;-67
2023/07/30 14:01:00;;;;;;;4.13;3.08;;;;;;;;;;5052017;28;20037;-68
2023/07/30 14:03:25;;;;;;;3.85;2.63;;;;;;;;;;5052815;28;20032;-66
2023/07/30 14:05:51;;;;;;;4.83;3.20;;;;;;;;;;5057969;28;20040;-66
2023/07/30 14:08:16;;;;;;;4.03;2.87;;;;;;;;;;5063440;28;20135;-65
2023/07/30 14:10:41;;;;;;;4.33;2.90;;;;;;;;;;5057432;28;20379;-65
2023/07/30 14:13:06;;;;;;;3.63;2.90;;;;;;;;;;5054097;28;20808;-66
2023/07/30 14:15:32;;;;;;;4.57;2.60;;;;;;;;;;5053945;28;20029;-68
2023/07/30 14:17:58;;;;;;;3.70;3.03;;;;;;;;;;5068835;28;20305;-68
2023/07/30 14:20:23;;;;;;;3.15;2.78;;;;;;;;;;5072372;28;20034;-68
2023/07/30 14:22:49;;;;;;;3.78;2.67;;;;;;;;;;5066317;28;20471;-68
2023/07/30 14:25:14;;;;;;;3.83;2.83;;;;;;;;;;5051123;28;20029;-67
2023/07/30 14:27:39;;;;;;;3.63;2.80;;;;;;;;;;5076517;22;20048;-67
2023/07/30 14:30:05;;;;;;;4.33;3.13;;;;;;;;;;5050716;28;20032;-66
2023/07/30 14:32:30;;;;;;;3.75;2.92;;;;;;;;;;5055506;28;20329;-66
2023/07/30 14:34:55;;;;;;;3.50;2.80;;;;;;;;;;5052592;28;20512;-67
2023/07/30 14:37:21;;;;;;;3.63;2.72;;;;;;;;;;5050868;28;20303;-66